sensor_id;sensor_type;location;lat;lon;timestamp;pressure;altitude;pressure_sealevel;temperature;humidity
29163;BME280;20331;53.144;8.208;2023-08-07T00:01:22;100836.97;;;16.46;97.69
29163;BME280;20331;53.144;8.208;2023-08-07T00:11:43;100831.91;;;16.43;98.68
29163;BME280;20331;53.144;8.208;2023-08-07T00:22:05;100820.34;;;16.32;97.82
29163;BME280;20331;53.144;8.208;2023-08-07T00:32:26;100813.53;;;16.29;100.00
29163;BME280;20331;53.144;8.208;2023-08-07T00:42:48;100815.97;;;16.32;100.00
29163;BME280;20331;53.144;8.208;2023-08-07T00:53:09;100813.34;;;16.32;100.00
29163;BME280;20331;53.144;8.208;2023-08-07T01:03:31;100813.53;;;16.29;100.00
29163;BME280;20331;53.144;8.208;2023-08-07T01:14:10;100817.03;;;16.28;100.00
29163;BME280;20331;53.144;8.208;2023-08-07T01:24:35;100811.16;;;16.25;100.00
29163;BME280;20331;53.144;8.208;2023-08-07T01:34:57;100807.72;;;16.24;100.00
29163;BME280;20331;53.144;8.208;2023-08-07T01:45:27;100815.19;;;16.15;100.00
29163;BME280;20331;53.144;8.208;2023-08-07T01:55:49;100812.03;;;16.08;100.00
29163;BME280;20331;53.144;8.208;2023-08-07T02:06:10;100807.66;;;16.08;100.00
29163;BME280;20331;53.144;8.208;2023-08-07T02:16:32;100811.28;;;16.06;100.00
29163;BME280;20331;53.144;8.208;2023-08-07T02:26:53;100815.41;;;16.10;100.00
29163;BME280;20331;53.144;8.208;2023-08-07T02:37:15;100826.88;;;16.07;100.00
29163;BME280;20331;53.144;8.208;2023-08-07T02:47:38;100823.59;;;16.04;100.00
29163;BME280;20331;53.144;8.208;2023-08-07T02:57:59;100832.50;;;16.00;100.00
29163;BME280;20331;53.144;8.208;2023-08-07T03:08:21;100813.94;;;15.89;100.00
29163;BME280;20331;53.144;8.208;2023-08-07T03:18:42;100826.41;;;15.84;100.00
29163;BME280;20331;53.144;8.208;2023-08-07T03:29:04;100814.41;;;15.80;100.00
29163;BME280;20331;53.144;8.208;2023-08-07T03:39:25;100818.09;;;15.76;100.00
29163;BME280;20331;53.144;8.208;2023-08-07T03:49:47;100824.19;;;15.76;100.00
29163;BME280;20331;53.144;8.208;2023-08-07T04:00:09;100821.63;;;15.75;100.00
29163;BME280;20331;53.144;8.208;2023-08-07T04:10:30;100837.63;;;15.69;100.00
29163;BME280;20331;53.144;8.208;2023-08-07T04:20:52;100832.69;;;15.63;100.00
29163;BME280;20331;53.144;8.208;2023-08-07T04:31:14;100846.28;;;15.52;100.00
29163;BME280;20331;53.144;8.208;2023-08-07T04:41:36;100835.00;;;15.52;100.00
29163;BME280;20331;53.144;8.208;2023-08-07T04:51:58;100841.53;;;15.43;100.00
29163;BME280;20331;53.144;8.208;2023-08-07T05:02:27;100843.19;;;15.44;100.00
29163;BME280;20331;53.144;8.208;2023-08-07T05:12:49;100846.03;;;15.57;100.00
29163;BME280;20331;53.144;8.208;2023-08-07T05:23:17;100852.41;;;15.68;100.00
29163;BME280;20331;53.144;8.208;2023-08-07T05:33:38;100870.13;;;15.79;100.00
29163;BME280;20331;53.144;8.208;2023-08-07T05:44:00;100870.75;;;15.84;100.00
29163;BME280;20331;53.144;8.208;2023-08-07T05:54:21;100867.69;;;15.93;100.00
29163;BME280;20331;53.144;8.208;2023-08-07T06:04:43;100877.66;;;16.02;100.00
29163;BME280;20331;53.144;8.208;2023-08-07T06:15:05;100892.34;;;16.20;100.00
29163;BME280;20331;53.144;8.208;2023-08-07T06:25:26;100912.34;;;16.04;100.00
29163;BME280;20331;53.144;8.208;2023-08-07T06:35:48;100908.97;;;16.02;100.00
29163;BME280;20331;53.144;8.208;2023-08-07T06:46:13;100902.72;;;16.04;99.85
29163;BME280;20331;53.144;8.208;2023-08-07T06:56:34;100914.03;;;16.05;100.00
29163;BME280;20331;53.144;8.208;2023-08-07T07:06:56;100912.88;;;16.10;100.00
29163;BME280;20331;53.144;8.208;2023-08-07T07:17:17;100902.91;;;16.34;100.00
29163;BME280;20331;53.144;8.208;2023-08-07T07:27:39;100923.06;;;16.65;98.08
29163;BME280;20331;53.144;8.208;2023-08-07T07:38:00;100924.53;;;17.01;94.69
29163;BME280;20331;53.144;8.208;2023-08-07T07:48:22;100928.75;;;17.20;90.41
29163;BME280;20331;53.144;8.208;2023-08-07T07:58:43;100950.38;;;17.23;89.40
29163;BME280;20331;53.144;8.208;2023-08-07T08:09:05;100962.50;;;17.24;87.41
29163;BME280;20331;53.144;8.208;2023-08-07T08:19:26;100971.94;;;17.11;85.52
29163;BME280;20331;53.144;8.208;2023-08-07T08:29:58;100991.69;;;17.17;82.78
29163;BME280;20331;53.144;8.208;2023-08-07T08:40:20;100982.59;;;17.55;83.36
29163;BME280;20331;53.144;8.208;2023-08-07T08:50:41;100997.53;;;17.53;81.99
29163;BME280;20331;53.144;8.208;2023-08-07T09:01:04;101023.59;;;17.39;80.93
29163;BME280;20331;53.144;8.208;2023-08-07T09:11:27;101021.25;;;17.50;79.53
29163;BME280;20331;53.144;8.208;2023-08-07T09:21:49;101011.25;;;17.87;76.42
29163;BME280;20331;53.144;8.208;2023-08-07T09:32:13;101025.78;;;18.23;71.06
29163;BME280;20331;53.144;8.208;2023-08-07T09:42:35;101100.28;;;17.24;78.24
29163;BME280;20331;53.144;8.208;2023-08-07T09:52:59;101081.75;;;16.95;79.22
29163;BME280;20331;53.144;8.208;2023-08-07T10:03:21;101079.59;;;17.52;76.86
29163;BME280;20331;53.144;8.208;2023-08-07T10:13:43;101130.06;;;16.71;86.21
29163;BME280;20331;53.144;8.208;2023-08-07T10:24:05;101131.50;;;16.07;90.63
29163;BME280;20331;53.144;8.208;2023-08-07T10:34:28;101140.97;;;16.27;87.94
29163;BME280;20331;53.144;8.208;2023-08-07T10:44:50;101110.44;;;16.80;84.12
29163;BME280;20331;53.144;8.208;2023-08-07T10:55:13;101111.50;;;17.10;81.03
29163;BME280;20331;53.144;8.208;2023-08-07T11:05:35;101125.66;;;17.22;77.31
29163;BME280;20331;53.144;8.208;2023-08-07T11:15:56;101128.06;;;17.42;78.83
29163;BME280;20331;53.144;8.208;2023-08-07T11:26:18;101125.03;;;17.82;71.97
29163;BME280;20331;53.144;8.208;2023-08-07T11:36:43;101133.88;;;17.64;71.70
29163;BME280;20331;53.144;8.208;2023-08-07T11:47:05;101154.00;;;17.79;69.62
29163;BME280;20331;53.144;8.208;2023-08-07T11:57:27;101160.97;;;17.47;73.79
29163;BME280;20331;53.144;8.208;2023-08-07T12:07:48;101161.50;;;17.37;76.33
29163;BME280;20331;53.144;8.208;2023-08-07T12:18:10;101172.41;;;17.45;76.78
29163;BME280;20331;53.144;8.208;2023-08-07T12:28:36;101195.09;;;16.94;80.27
29163;BME280;20331;53.144;8.208;2023-08-07T12:38:58;101185.72;;;17.07;79.48
29163;BME280;20331;53.144;8.208;2023-08-07T12:49:19;101188.31;;;17.74;75.83
29163;BME280;20331;53.144;8.208;2023-08-07T12:59:41;101163.63;;;18.25;70.08
29163;BME280;20331;53.144;8.208;2023-08-07T13:10:03;101187.63;;;18.49;65.36
29163;BME280;20331;53.144;8.208;2023-08-07T13:20:25;101213.66;;;18.21;65.48
29163;BME280;20331;53.144;8.208;2023-08-07T13:30:47;101218.63;;;18.09;67.94
29163;BME280;20331;53.144;8.208;2023-08-07T13:41:09;101220.16;;;18.14;70.29
29163;BME280;20331;53.144;8.208;2023-08-07T13:51:30;101233.31;;;17.81;70.91
29163;BME280;20331;53.144;8.208;2023-08-07T14:01:52;101240.22;;;17.82;73.47
29163;BME280;20331;53.144;8.208;2023-08-07T14:12:15;101263.00;;;17.47;73.97
29163;BME280;20331;53.144;8.208;2023-08-07T14:22:37;101246.00;;;17.56;73.50
29163;BME280;20331;53.144;8.208;2023-08-07T14:32:59;101238.78;;;18.09;70.02
29163;BME280;20331;53.144;8.208;2023-08-07T14:43:21;101238.34;;;18.32;64.89
29163;BME280;20331;53.144;8.208;2023-08-07T14:53:42;101276.13;;;18.28;66.44
29163;BME280;20331;53.144;8.208;2023-08-07T15:04:04;101262.94;;;18.30;66.88
29163;BME280;20331;53.144;8.208;2023-08-07T15:14:25;101283.97;;;18.28;68.74
29163;BME280;20331;53.144;8.208;2023-08-07T15:24:47;101292.38;;;18.02;71.73
29163;BME280;20331;53.144;8.208;2023-08-07T15:35:08;101291.59;;;17.52;78.75
29163;BME280;20331;53.144;8.208;2023-08-07T15:45:30;101293.94;;;17.22;82.75
29163;BME280;20331;53.144;8.208;2023-08-07T15:55:51;101292.97;;;17.59;80.10
29163;BME280;20331;53.144;8.208;2023-08-07T16:06:13;101302.00;;;17.86;73.22
29163;BME280;20331;53.144;8.208;2023-08-07T16:16:34;101302.72;;;17.72;71.08
29163;BME280;20331;53.144;8.208;2023-08-07T16:26:56;101319.59;;;17.67;71.07
29163;BME280;20331;53.144;8.208;2023-08-07T16:37:18;101324.84;;;17.50;70.34
29163;BME280;20331;53.144;8.208;2023-08-07T16:47:40;101327.09;;;17.39;72.10
29163;BME280;20331;53.144;8.208;2023-08-07T16:58:01;101341.25;;;17.35;70.08
29163;BME280;20331;53.144;8.208;2023-08-07T17:08:23;101340.09;;;17.40;69.82
29163;BME280;20331;53.144;8.208;2023-08-07T17:18:44;101328.38;;;17.49;68.43
29163;BME280;20331;53.144;8.208;2023-08-07T17:29:08;101336.47;;;17.26;67.28
29163;BME280;20331;53.144;8.208;2023-08-07T17:39:29;101340.78;;;17.09;69.08
29163;BME280;20331;53.144;8.208;2023-08-07T17:49:51;101315.69;;;17.05;70.02
29163;BME280;20331;53.144;8.208;2023-08-07T18:00:12;101326.41;;;17.01;69.87
29163;BME280;20331;53.144;8.208;2023-08-07T18:10:37;101320.75;;;16.91;70.42
29163;BME280;20331;53.144;8.208;2023-08-07T18:20:59;101324.34;;;16.53;73.84
29163;BME280;20331;53.144;8.208;2023-08-07T18:31:20;101322.41;;;16.38;75.14
29163;BME280;20331;53.144;8.208;2023-08-07T18:41:44;101336.84;;;16.27;76.17
29163;BME280;20331;53.144;8.208;2023-08-07T18:52:06;101320.63;;;15.81;81.99
29163;BME280;20331;53.144;8.208;2023-08-07T19:02:27;101336.47;;;15.77;80.41
29163;BME280;20331;53.144;8.208;2023-08-07T19:12:49;101308.69;;;15.76;79.69
29163;BME280;20331;53.144;8.208;2023-08-07T19:23:11;101321.47;;;15.82;77.53
29163;BME280;20331;53.144;8.208;2023-08-07T19:33:33;101327.84;;;15.75;76.69
29163;BME280;20331;53.144;8.208;2023-08-07T19:43:55;101329.81;;;15.70;76.99
29163;BME280;20331;53.144;8.208;2023-08-07T19:54:16;101320.50;;;15.64;77.04
29163;BME280;20331;53.144;8.208;2023-08-07T20:04:38;101329.50;;;15.57;76.19
29163;BME280;20331;53.144;8.208;2023-08-07T20:14:59;101334.06;;;15.52;75.83
29163;BME280;20331;53.144;8.208;2023-08-07T20:25:21;101312.75;;;15.43;75.33
29163;BME280;20331;53.144;8.208;2023-08-07T20:35:42;101314.84;;;15.33;76.17
29163;BME280;20331;53.144;8.208;2023-08-07T20:46:04;101310.09;;;15.23;76.60
29163;BME280;20331;53.144;8.208;2023-08-07T20:56:26;101313.31;;;15.07;77.18
29163;BME280;20331;53.144;8.208;2023-08-07T21:06:47;101303.50;;;14.92;77.73
29163;BME280;20331;53.144;8.208;2023-08-07T21:17:11;101316.13;;;14.81;78.46
29163;BME280;20331;53.144;8.208;2023-08-07T21:27:33;101302.56;;;14.73;79.25
29163;BME280;20331;53.144;8.208;2023-08-07T21:37:55;101287.28;;;14.64;79.21
29163;BME280;20331;53.144;8.208;2023-08-07T21:48:16;101279.84;;;14.55;79.81
29163;BME280;20331;53.144;8.208;2023-08-07T21:58:38;101255.53;;;14.55;79.82
29163;BME280;20331;53.144;8.208;2023-08-07T22:08:59;101247.94;;;14.50;80.22
29163;BME280;20331;53.144;8.208;2023-08-07T22:19:21;101254.16;;;14.46;80.96
29163;BME280;20331;53.144;8.208;2023-08-07T22:29:42;101253.72;;;14.35;81.88
29163;BME280;20331;53.144;8.208;2023-08-07T22:40:05;101241.38;;;14.40;81.79
29163;BME280;20331;53.144;8.208;2023-08-07T22:50:27;101240.44;;;14.41;82.45
29163;BME280;20331;53.144;8.208;2023-08-07T23:00:51;101232.63;;;14.41;83.29
29163;BME280;20331;53.144;8.208;2023-08-07T23:11:13;101224.16;;;14.36;83.80
29163;BME280;20331;53.144;8.208;2023-08-07T23:21:34;101209.56;;;14.32;85.05
29163;BME280;20331;53.144;8.208;2023-08-07T23:31:56;101210.47;;;14.31;85.22
29163;BME280;20331;53.144;8.208;2023-08-07T23:42:18;101206.19;;;14.30;85.59
29163;BME280;20331;53.144;8.208;2023-08-07T23:52:39;101194.13;;;14.28;86.03
